<?xml version="1.0" encoding="UTF-8" standalone="no" ?>
<gpx xmlns="http://www.topografix.com/GPX/1/1" xmlns:xsi="http://www.w3.org/2001/XMLSchema-instance" xsi:schemaLocation="http://www.topografix.com/GPX/1/1 http://www.topografix.com/GPX/1/1/gpx.xsd" version="1.1" creator="VisuGPX - https://www.visugpx.com">
  <metadata>
    <name>Hautefage la Tour 10.4 km</name>
  </metadata>
  <trk>
    <name><![CDATA[trace]]></name>
    <extensions>
      <line xmlns="http://www.topografix.com/GPX/gpx_style/0/2">
        <color>0000FF</color>
        <width>4</width>
      </line>
    </extensions>
    <trkseg>
      <trkpt lat="44.32318" lon="0.78435">
        <ele>210.7</ele>
        <time>2022-01-18T15:26:19.040Z</time>
      </trkpt>
      <trkpt lat="44.32321" lon="0.78456">
        <ele>211.1</ele>
        <time>2022-01-18T15:25:25.040Z</time>
      </trkpt>
      <trkpt lat="44.3233" lon="0.78467">
        <ele>211.8</ele>
        <time>2022-01-18T15:25:13.040Z</time>
      </trkpt>
      <trkpt lat="44.3234" lon="0.78465">
        <ele>212.5</ele>
        <time>2022-01-18T15:25:02.040Z</time>
      </trkpt>
      <trkpt lat="44.32336" lon="0.78466">
        <ele>212.2</ele>
        <time>2022-01-18T15:24:50.040Z</time>
      </trkpt>
      <trkpt lat="44.32337" lon="0.78468">
        <ele>212.3</ele>
        <time>2022-01-18T15:24:38.040Z</time>
      </trkpt>
      <trkpt lat="44.32347" lon="0.78477">
        <ele>213.2</ele>
        <time>2022-01-18T15:24:27.040Z</time>
      </trkpt>
      <trkpt lat="44.32373" lon="0.78494">
        <ele>215.4</ele>
        <time>2022-01-18T15:24:03.040Z</time>
      </trkpt>
      <trkpt lat="44.32384" lon="0.78503">
        <ele>215.8</ele>
        <time>2022-01-18T15:23:51.040Z</time>
      </trkpt>
      <trkpt lat="44.32392" lon="0.78516">
        <ele>216.1</ele>
        <time>2022-01-18T15:23:40.040Z</time>
      </trkpt>
      <trkpt lat="44.32398" lon="0.78532">
        <ele>216.3</ele>
        <time>2022-01-18T15:23:28.040Z</time>
      </trkpt>
      <trkpt lat="44.32385" lon="0.78566">
        <ele>215.4</ele>
        <time>2022-01-18T15:22:53.040Z</time>
      </trkpt>
      <trkpt lat="44.3236" lon="0.78641">
        <ele>214</ele>
        <time>2022-01-18T15:22:06.040Z</time>
      </trkpt>
      <trkpt lat="44.32377" lon="0.78674">
        <ele>215.7</ele>
        <time>2022-01-18T15:21:42.040Z</time>
      </trkpt>
      <trkpt lat="44.32388" lon="0.78677">
        <ele>216</ele>
        <time>2022-01-18T15:21:31.040Z</time>
      </trkpt>
      <trkpt lat="44.324" lon="0.78678">
        <ele>216.5</ele>
        <time>2022-01-18T15:21:19.040Z</time>
      </trkpt>
      <trkpt lat="44.32445" lon="0.78675">
        <ele>218</ele>
        <time>2022-01-18T15:20:44.040Z</time>
      </trkpt>
      <trkpt lat="44.32477" lon="0.78675">
        <ele>218.5</ele>
        <time>2022-01-18T15:20:20.040Z</time>
      </trkpt>
      <trkpt lat="44.32536" lon="0.78673">
        <ele>215.7</ele>
        <time>2022-01-18T15:19:33.040Z</time>
      </trkpt>
      <trkpt lat="44.32564" lon="0.7867">
        <ele>214.7</ele>
        <time>2022-01-18T15:19:10.040Z</time>
      </trkpt>
      <trkpt lat="44.32593" lon="0.78662">
        <ele>213.8</ele>
        <time>2022-01-18T15:18:46.040Z</time>
      </trkpt>
      <trkpt lat="44.32649" lon="0.78637">
        <ele>210.7</ele>
        <time>2022-01-18T15:17:59.040Z</time>
      </trkpt>
      <trkpt lat="44.32678" lon="0.78627">
        <ele>209.2</ele>
        <time>2022-01-18T15:17:36.040Z</time>
      </trkpt>
      <trkpt lat="44.32693" lon="0.78623">
        <ele>208.1</ele>
        <time>2022-01-18T15:17:24.040Z</time>
      </trkpt>
      <trkpt lat="44.32707" lon="0.78622">
        <ele>207.5</ele>
        <time>2022-01-18T15:16:59.040Z</time>
      </trkpt>
      <trkpt lat="44.32723" lon="0.78622">
        <ele>207</ele>
        <time>2022-01-18T15:16:47.040Z</time>
      </trkpt>
      <trkpt lat="44.32813" lon="0.78627">
        <ele>204.3</ele>
        <time>2022-01-18T15:14:54.036Z</time>
      </trkpt>
      <trkpt lat="44.3286" lon="0.78624">
        <ele>203</ele>
        <time>2022-01-18T15:14:07.028Z</time>
      </trkpt>
      <trkpt lat="44.32887" lon="0.78624">
        <ele>202.1</ele>
        <time>2022-01-18T15:13:44.028Z</time>
      </trkpt>
      <trkpt lat="44.32902" lon="0.78628">
        <ele>201.3</ele>
        <time>2022-01-18T15:13:32.028Z</time>
      </trkpt>
      <trkpt lat="44.3293" lon="0.78637">
        <ele>200.4</ele>
        <time>2022-01-18T15:12:57.020Z</time>
      </trkpt>
      <trkpt lat="44.32944" lon="0.78644">
        <ele>200</ele>
        <time>2022-01-18T15:12:45.020Z</time>
      </trkpt>
      <trkpt lat="44.3297" lon="0.78654">
        <ele>198.7</ele>
        <time>2022-01-18T15:12:22.020Z</time>
      </trkpt>
      <trkpt lat="44.32987" lon="0.7866">
        <ele>197.5</ele>
        <time>2022-01-18T15:12:10.016Z</time>
      </trkpt>
      <trkpt lat="44.32988" lon="0.78663">
        <ele>197.6</ele>
        <time>2022-01-18T15:11:58.008Z</time>
      </trkpt>
      <trkpt lat="44.32997" lon="0.78666">
        <ele>197.2</ele>
        <time>2022-01-18T15:11:46.008Z</time>
      </trkpt>
      <trkpt lat="44.33037" lon="0.78673">
        <ele>187.6</ele>
        <time>2022-01-18T15:11:00.008Z</time>
      </trkpt>
      <trkpt lat="44.33053" lon="0.78688">
        <ele>183.2</ele>
        <time>2022-01-18T15:10:36.008Z</time>
      </trkpt>
      <trkpt lat="44.33068" lon="0.78699">
        <ele>179</ele>
        <time>2022-01-18T15:10:13.008Z</time>
      </trkpt>
      <trkpt lat="44.33079" lon="0.78711">
        <ele>175.4</ele>
        <time>2022-01-18T15:09:32.008Z</time>
      </trkpt>
      <trkpt lat="44.33086" lon="0.78726">
        <ele>173.1</ele>
        <time>2022-01-18T15:09:09.008Z</time>
      </trkpt>
      <trkpt lat="44.33092" lon="0.78733">
        <ele>170.9</ele>
        <time>2022-01-18T15:08:57.008Z</time>
      </trkpt>
      <trkpt lat="44.33101" lon="0.78735">
        <ele>168.3</ele>
        <time>2022-01-18T15:08:45.008Z</time>
      </trkpt>
      <trkpt lat="44.33108" lon="0.78727">
        <ele>166.7</ele>
        <time>2022-01-18T15:08:33.008Z</time>
      </trkpt>
      <trkpt lat="44.33114" lon="0.78706">
        <ele>164.7</ele>
        <time>2022-01-18T15:08:10.008Z</time>
      </trkpt>
      <trkpt lat="44.33132" lon="0.78656">
        <ele>157.6</ele>
        <time>2022-01-18T15:07:11.008Z</time>
      </trkpt>
      <trkpt lat="44.33137" lon="0.78646">
        <ele>155.9</ele>
        <time>2022-01-18T15:07:00.008Z</time>
      </trkpt>
      <trkpt lat="44.33145" lon="0.7864">
        <ele>154.3</ele>
        <time>2022-01-18T15:06:48.008Z</time>
      </trkpt>
      <trkpt lat="44.33154" lon="0.78636">
        <ele>152.5</ele>
        <time>2022-01-18T15:05:25.008Z</time>
      </trkpt>
      <trkpt lat="44.33162" lon="0.7863">
        <ele>150.7</ele>
        <time>2022-01-18T15:05:07.008Z</time>
      </trkpt>
      <trkpt lat="44.3317" lon="0.78625">
        <ele>149</ele>
        <time>2022-01-18T15:04:32.004Z</time>
      </trkpt>
      <trkpt lat="44.33186" lon="0.78619">
        <ele>146.1</ele>
        <time>2022-01-18T15:04:07.996Z</time>
      </trkpt>
      <trkpt lat="44.33207" lon="0.78614">
        <ele>144.1</ele>
        <time>2022-01-18T15:03:44.996Z</time>
      </trkpt>
      <trkpt lat="44.33218" lon="0.78612">
        <ele>143.3</ele>
        <time>2022-01-18T15:03:32.996Z</time>
      </trkpt>
      <trkpt lat="44.33225" lon="0.78616">
        <ele>142.8</ele>
        <time>2022-01-18T15:03:20.984Z</time>
      </trkpt>
      <trkpt lat="44.33233" lon="0.78663">
        <ele>140.4</ele>
        <time>2022-01-18T15:02:45.984Z</time>
      </trkpt>
      <trkpt lat="44.33233" lon="0.7868">
        <ele>139.5</ele>
        <time>2022-01-18T15:02:33.984Z</time>
      </trkpt>
      <trkpt lat="44.33232" lon="0.78696">
        <ele>138.9</ele>
        <time>2022-01-18T15:02:22.984Z</time>
      </trkpt>
      <trkpt lat="44.33227" lon="0.78712">
        <ele>138.8</ele>
        <time>2022-01-18T15:02:10.984Z</time>
      </trkpt>
      <trkpt lat="44.3322" lon="0.78775">
        <ele>138.6</ele>
        <time>2022-01-18T15:01:23.984Z</time>
      </trkpt>
      <trkpt lat="44.33221" lon="0.7879">
        <ele>138.5</ele>
        <time>2022-01-18T15:01:06.976Z</time>
      </trkpt>
      <trkpt lat="44.33217" lon="0.7882">
        <ele>138.5</ele>
        <time>2022-01-18T15:00:31.972Z</time>
      </trkpt>
      <trkpt lat="44.33216" lon="0.78832">
        <ele>137.6</ele>
        <time>2022-01-18T15:00:00.968Z</time>
      </trkpt>
      <trkpt lat="44.33218" lon="0.78846">
        <ele>135.7</ele>
        <time>2022-01-18T14:59:48.968Z</time>
      </trkpt>
      <trkpt lat="44.33224" lon="0.78846">
        <ele>134.3</ele>
        <time>2022-01-18T14:59:37.956Z</time>
      </trkpt>
      <trkpt lat="44.3323" lon="0.78842">
        <ele>133.9</ele>
        <time>2022-01-18T14:59:25.956Z</time>
      </trkpt>
      <trkpt lat="44.33235" lon="0.78848">
        <ele>132.4</ele>
        <time>2022-01-18T14:59:13.956Z</time>
      </trkpt>
      <trkpt lat="44.33268" lon="0.78877">
        <ele>125.6</ele>
        <time>2022-01-18T14:58:26.956Z</time>
      </trkpt>
      <trkpt lat="44.33276" lon="0.78875">
        <ele>125.2</ele>
        <time>2022-01-18T14:58:15.956Z</time>
      </trkpt>
      <trkpt lat="44.33283" lon="0.78862">
        <ele>125.2</ele>
        <time>2022-01-18T14:58:03.956Z</time>
      </trkpt>
      <trkpt lat="44.33293" lon="0.78832">
        <ele>125.9</ele>
        <time>2022-01-18T14:57:39.956Z</time>
      </trkpt>
      <trkpt lat="44.33301" lon="0.78822">
        <ele>125.7</ele>
        <time>2022-01-18T14:57:28.956Z</time>
      </trkpt>
      <trkpt lat="44.3332" lon="0.78803">
        <ele>127.8</ele>
        <time>2022-01-18T14:57:04.956Z</time>
      </trkpt>
      <trkpt lat="44.33329" lon="0.788">
        <ele>128.7</ele>
        <time>2022-01-18T14:56:52.956Z</time>
      </trkpt>
      <trkpt lat="44.33348" lon="0.78816">
        <ele>128.1</ele>
        <time>2022-01-18T14:56:29.956Z</time>
      </trkpt>
      <trkpt lat="44.33358" lon="0.78826">
        <ele>127.2</ele>
        <time>2022-01-18T14:56:17.956Z</time>
      </trkpt>
      <trkpt lat="44.33401" lon="0.78864">
        <ele>126.3</ele>
        <time>2022-01-18T14:55:30.956Z</time>
      </trkpt>
      <trkpt lat="44.33409" lon="0.78866">
        <ele>126.7</ele>
        <time>2022-01-18T14:55:19.940Z</time>
      </trkpt>
      <trkpt lat="44.33422" lon="0.78873">
        <ele>126.5</ele>
        <time>2022-01-18T14:55:07.940Z</time>
      </trkpt>
      <trkpt lat="44.33435" lon="0.78877">
        <ele>127</ele>
        <time>2022-01-18T14:54:55.940Z</time>
      </trkpt>
      <trkpt lat="44.33447" lon="0.78885">
        <ele>126.8</ele>
        <time>2022-01-18T14:54:43.940Z</time>
      </trkpt>
      <trkpt lat="44.33459" lon="0.78888">
        <ele>126.2</ele>
        <time>2022-01-18T14:54:32.940Z</time>
      </trkpt>
      <trkpt lat="44.33468" lon="0.78884">
        <ele>127.1</ele>
        <time>2022-01-18T14:54:20.940Z</time>
      </trkpt>
      <trkpt lat="44.33474" lon="0.78886">
        <ele>126.6</ele>
        <time>2022-01-18T14:54:08.928Z</time>
      </trkpt>
      <trkpt lat="44.3352" lon="0.78925">
        <ele>120.6</ele>
        <time>2022-01-18T14:53:10.928Z</time>
      </trkpt>
      <trkpt lat="44.33534" lon="0.78939">
        <ele>118.8</ele>
        <time>2022-01-18T14:52:46.928Z</time>
      </trkpt>
      <trkpt lat="44.33554" lon="0.78952">
        <ele>116.9</ele>
        <time>2022-01-18T14:52:05.908Z</time>
      </trkpt>
      <trkpt lat="44.33566" lon="0.78957">
        <ele>116.3</ele>
        <time>2022-01-18T14:51:38.900Z</time>
      </trkpt>
      <trkpt lat="44.33579" lon="0.78972">
        <ele>114.8</ele>
        <time>2022-01-18T14:51:14.900Z</time>
      </trkpt>
      <trkpt lat="44.33597" lon="0.78989">
        <ele>112.5</ele>
        <time>2022-01-18T14:50:51.900Z</time>
      </trkpt>
      <trkpt lat="44.33608" lon="0.78995">
        <ele>112.4</ele>
        <time>2022-01-18T14:50:39.900Z</time>
      </trkpt>
      <trkpt lat="44.3362" lon="0.79006">
        <ele>111.4</ele>
        <time>2022-01-18T14:50:27.900Z</time>
      </trkpt>
      <trkpt lat="44.3363" lon="0.79013">
        <ele>110.9</ele>
        <time>2022-01-18T14:50:16.900Z</time>
      </trkpt>
      <trkpt lat="44.33639" lon="0.79019">
        <ele>110.7</ele>
        <time>2022-01-18T14:50:04.900Z</time>
      </trkpt>
      <trkpt lat="44.33645" lon="0.79033">
        <ele>108.8</ele>
        <time>2022-01-18T14:49:52.900Z</time>
      </trkpt>
      <trkpt lat="44.33649" lon="0.79048">
        <ele>107.6</ele>
        <time>2022-01-18T14:49:41.900Z</time>
      </trkpt>
      <trkpt lat="44.3366" lon="0.79082">
        <ele>105.3</ele>
        <time>2022-01-18T14:49:17.900Z</time>
      </trkpt>
      <trkpt lat="44.33665" lon="0.79093">
        <ele>104.7</ele>
        <time>2022-01-18T14:49:05.900Z</time>
      </trkpt>
      <trkpt lat="44.33686" lon="0.79111">
        <ele>104.7</ele>
        <time>2022-01-18T14:48:07.884Z</time>
      </trkpt>
      <trkpt lat="44.33697" lon="0.79122">
        <ele>104.6</ele>
        <time>2022-01-18T14:47:55.884Z</time>
      </trkpt>
      <trkpt lat="44.33721" lon="0.79139">
        <ele>104.9</ele>
        <time>2022-01-18T14:47:32.884Z</time>
      </trkpt>
      <trkpt lat="44.33746" lon="0.79152">
        <ele>104.9</ele>
        <time>2022-01-18T14:47:08.884Z</time>
      </trkpt>
      <trkpt lat="44.33769" lon="0.79165">
        <ele>105.6</ele>
        <time>2022-01-18T14:46:45.884Z</time>
      </trkpt>
      <trkpt lat="44.33782" lon="0.79171">
        <ele>106.3</ele>
        <time>2022-01-18T14:46:33.884Z</time>
      </trkpt>
      <trkpt lat="44.33792" lon="0.79178">
        <ele>107</ele>
        <time>2022-01-18T14:46:21.884Z</time>
      </trkpt>
      <trkpt lat="44.33815" lon="0.7919">
        <ele>108.3</ele>
        <time>2022-01-18T14:45:58.884Z</time>
      </trkpt>
      <trkpt lat="44.33885" lon="0.79233">
        <ele>106.2</ele>
        <time>2022-01-18T14:44:47.884Z</time>
      </trkpt>
      <trkpt lat="44.33906" lon="0.79244">
        <ele>104.4</ele>
        <time>2022-01-18T14:44:24.884Z</time>
      </trkpt>
      <trkpt lat="44.33925" lon="0.79252">
        <ele>102.3</ele>
        <time>2022-01-18T14:44:01.884Z</time>
      </trkpt>
      <trkpt lat="44.33946" lon="0.79259">
        <ele>100.3</ele>
        <time>2022-01-18T14:42:54.876Z</time>
      </trkpt>
      <trkpt lat="44.33978" lon="0.79271">
        <ele>95.7</ele>
        <time>2022-01-18T14:42:19.876Z</time>
      </trkpt>
      <trkpt lat="44.33988" lon="0.79277">
        <ele>93.8</ele>
        <time>2022-01-18T14:42:07.876Z</time>
      </trkpt>
      <trkpt lat="44.34009" lon="0.79287">
        <ele>90.6</ele>
        <time>2022-01-18T14:41:44.876Z</time>
      </trkpt>
      <trkpt lat="44.34032" lon="0.79294">
        <ele>87.3</ele>
        <time>2022-01-18T14:41:20.876Z</time>
      </trkpt>
      <trkpt lat="44.34042" lon="0.79299">
        <ele>85.8</ele>
        <time>2022-01-18T14:41:09.876Z</time>
      </trkpt>
      <trkpt lat="44.34054" lon="0.79302">
        <ele>84.3</ele>
        <time>2022-01-18T14:40:57.876Z</time>
      </trkpt>
      <trkpt lat="44.34183" lon="0.7935">
        <ele>78</ele>
        <time>2022-01-18T14:38:59.876Z</time>
      </trkpt>
      <trkpt lat="44.34205" lon="0.79361">
        <ele>78</ele>
        <time>2022-01-18T14:38:36.876Z</time>
      </trkpt>
      <trkpt lat="44.34219" lon="0.79361">
        <ele>78</ele>
        <time>2022-01-18T14:38:24.876Z</time>
      </trkpt>
      <trkpt lat="44.34225" lon="0.79365">
        <ele>78</ele>
        <time>2022-01-18T14:38:13.993Z</time>
      </trkpt>
      <trkpt lat="44.34234" lon="0.79371">
        <ele>78</ele>
        <time>2022-01-18T14:33:47.961Z</time>
      </trkpt>
      <trkpt lat="44.34242" lon="0.79366">
        <ele>78</ele>
        <time>2022-01-18T14:33:35.961Z</time>
      </trkpt>
      <trkpt lat="44.34257" lon="0.79361">
        <ele>78</ele>
        <time>2022-01-18T14:33:23.961Z</time>
      </trkpt>
      <trkpt lat="44.3427" lon="0.7936">
        <ele>78</ele>
        <time>2022-01-18T14:33:12.961Z</time>
      </trkpt>
      <trkpt lat="44.34285" lon="0.7936">
        <ele>78</ele>
        <time>2022-01-18T14:33:00.961Z</time>
      </trkpt>
      <trkpt lat="44.34323" lon="0.7935">
        <ele>78</ele>
        <time>2022-01-18T14:32:25.957Z</time>
      </trkpt>
      <trkpt lat="44.34333" lon="0.79345">
        <ele>78</ele>
        <time>2022-01-18T14:32:13.953Z</time>
      </trkpt>
      <trkpt lat="44.34353" lon="0.79333">
        <ele>78</ele>
        <time>2022-01-18T14:31:50.953Z</time>
      </trkpt>
      <trkpt lat="44.34365" lon="0.7933">
        <ele>78</ele>
        <time>2022-01-18T14:31:38.953Z</time>
      </trkpt>
      <trkpt lat="44.34363" lon="0.79318">
        <ele>78</ele>
        <time>2022-01-18T14:31:26.949Z</time>
      </trkpt>
      <trkpt lat="44.34336" lon="0.79282">
        <ele>77.9</ele>
        <time>2022-01-18T14:30:45.949Z</time>
      </trkpt>
      <trkpt lat="44.34323" lon="0.79269">
        <ele>78</ele>
        <time>2022-01-18T14:30:33.949Z</time>
      </trkpt>
      <trkpt lat="44.34253" lon="0.7918">
        <ele>78</ele>
        <time>2022-01-18T14:29:23.949Z</time>
      </trkpt>
      <trkpt lat="44.34233" lon="0.79156">
        <ele>78.4</ele>
        <time>2022-01-18T14:28:59.941Z</time>
      </trkpt>
      <trkpt lat="44.34255" lon="0.79144">
        <ele>78.7</ele>
        <time>2022-01-18T14:28:36.941Z</time>
      </trkpt>
      <trkpt lat="44.34284" lon="0.7913">
        <ele>78.3</ele>
        <time>2022-01-18T14:28:12.941Z</time>
      </trkpt>
      <trkpt lat="44.34296" lon="0.79119">
        <ele>78.7</ele>
        <time>2022-01-18T14:28:01.941Z</time>
      </trkpt>
      <trkpt lat="44.34303" lon="0.791">
        <ele>79.4</ele>
        <time>2022-01-18T14:27:49.941Z</time>
      </trkpt>
      <trkpt lat="44.34313" lon="0.79064">
        <ele>80.7</ele>
        <time>2022-01-18T14:27:15.925Z</time>
      </trkpt>
      <trkpt lat="44.34334" lon="0.79032">
        <ele>81.9</ele>
        <time>2022-01-18T14:26:40.913Z</time>
      </trkpt>
      <trkpt lat="44.3434" lon="0.79011">
        <ele>82.6</ele>
        <time>2022-01-18T14:26:28.913Z</time>
      </trkpt>
      <trkpt lat="44.34344" lon="0.7899">
        <ele>83.5</ele>
        <time>2022-01-18T14:26:17.913Z</time>
      </trkpt>
      <trkpt lat="44.34345" lon="0.7897">
        <ele>84.6</ele>
        <time>2022-01-18T14:26:05.913Z</time>
      </trkpt>
      <trkpt lat="44.34343" lon="0.78949">
        <ele>86.6</ele>
        <time>2022-01-18T14:25:53.913Z</time>
      </trkpt>
      <trkpt lat="44.3434" lon="0.78929">
        <ele>87.9</ele>
        <time>2022-01-18T14:25:41.913Z</time>
      </trkpt>
      <trkpt lat="44.34342" lon="0.7891">
        <ele>88.9</ele>
        <time>2022-01-18T14:25:30.913Z</time>
      </trkpt>
      <trkpt lat="44.34353" lon="0.7888">
        <ele>91</ele>
        <time>2022-01-18T14:24:46.902Z</time>
      </trkpt>
      <trkpt lat="44.34362" lon="0.78866">
        <ele>92.4</ele>
        <time>2022-01-18T14:24:34.894Z</time>
      </trkpt>
      <trkpt lat="44.34363" lon="0.78858">
        <ele>93.1</ele>
        <time>2022-01-18T14:24:22.894Z</time>
      </trkpt>
      <trkpt lat="44.34369" lon="0.78839">
        <ele>93.7</ele>
        <time>2022-01-18T14:24:10.894Z</time>
      </trkpt>
      <trkpt lat="44.34376" lon="0.78804">
        <ele>95.6</ele>
        <time>2022-01-18T14:23:47.894Z</time>
      </trkpt>
      <trkpt lat="44.34388" lon="0.78713">
        <ele>100.3</ele>
        <time>2022-01-18T14:22:55.878Z</time>
      </trkpt>
      <trkpt lat="44.34392" lon="0.78693">
        <ele>101.3</ele>
        <time>2022-01-18T14:21:39.065Z</time>
      </trkpt>
      <trkpt lat="44.34393" lon="0.78671">
        <ele>103</ele>
        <time>2022-01-18T14:21:27.065Z</time>
      </trkpt>
      <trkpt lat="44.34392" lon="0.78649">
        <ele>104.4</ele>
        <time>2022-01-18T14:21:16.065Z</time>
      </trkpt>
      <trkpt lat="44.34395" lon="0.78631">
        <ele>105.8</ele>
        <time>2022-01-18T14:21:04.065Z</time>
      </trkpt>
      <trkpt lat="44.34406" lon="0.786">
        <ele>108.3</ele>
        <time>2022-01-18T14:20:41.065Z</time>
      </trkpt>
      <trkpt lat="44.34433" lon="0.78542">
        <ele>113.7</ele>
        <time>2022-01-18T14:19:54.065Z</time>
      </trkpt>
      <trkpt lat="44.34461" lon="0.78485">
        <ele>119.3</ele>
        <time>2022-01-18T14:19:07.065Z</time>
      </trkpt>
      <trkpt lat="44.34457" lon="0.78479">
        <ele>119.1</ele>
        <time>2022-01-18T14:18:55.065Z</time>
      </trkpt>
      <trkpt lat="44.34437" lon="0.78454">
        <ele>117.6</ele>
        <time>2022-01-18T14:18:20.065Z</time>
      </trkpt>
      <trkpt lat="44.34429" lon="0.78438">
        <ele>117.1</ele>
        <time>2022-01-18T14:18:08.065Z</time>
      </trkpt>
      <trkpt lat="44.34413" lon="0.7841">
        <ele>116.9</ele>
        <time>2022-01-18T14:17:45.065Z</time>
      </trkpt>
      <trkpt lat="44.34402" lon="0.78399">
        <ele>116.5</ele>
        <time>2022-01-18T14:17:33.065Z</time>
      </trkpt>
      <trkpt lat="44.3439" lon="0.78393">
        <ele>115.7</ele>
        <time>2022-01-18T14:17:21.065Z</time>
      </trkpt>
      <trkpt lat="44.34378" lon="0.78389">
        <ele>115.6</ele>
        <time>2022-01-18T14:17:09.065Z</time>
      </trkpt>
      <trkpt lat="44.34367" lon="0.78383">
        <ele>116.1</ele>
        <time>2022-01-18T14:16:58.065Z</time>
      </trkpt>
      <trkpt lat="44.34356" lon="0.78374">
        <ele>116.9</ele>
        <time>2022-01-18T14:16:46.065Z</time>
      </trkpt>
      <trkpt lat="44.34305" lon="0.78344">
        <ele>116.2</ele>
        <time>2022-01-18T14:15:59.065Z</time>
      </trkpt>
      <trkpt lat="44.34295" lon="0.78334">
        <ele>115.8</ele>
        <time>2022-01-18T14:15:47.065Z</time>
      </trkpt>
      <trkpt lat="44.34279" lon="0.78314">
        <ele>114.8</ele>
        <time>2022-01-18T14:15:24.065Z</time>
      </trkpt>
      <trkpt lat="44.34268" lon="0.78301">
        <ele>113.9</ele>
        <time>2022-01-18T14:15:12.065Z</time>
      </trkpt>
      <trkpt lat="44.34205" lon="0.78223">
        <ele>115.5</ele>
        <time>2022-01-18T14:14:02.065Z</time>
      </trkpt>
      <trkpt lat="44.34185" lon="0.78193">
        <ele>114.3</ele>
        <time>2022-01-18T14:13:38.065Z</time>
      </trkpt>
      <trkpt lat="44.34168" lon="0.78163">
        <ele>114.2</ele>
        <time>2022-01-18T14:13:15.065Z</time>
      </trkpt>
      <trkpt lat="44.34139" lon="0.78085">
        <ele>115.9</ele>
        <time>2022-01-18T14:12:16.065Z</time>
      </trkpt>
      <trkpt lat="44.34133" lon="0.78072">
        <ele>115.7</ele>
        <time>2022-01-18T14:12:04.065Z</time>
      </trkpt>
      <trkpt lat="44.34124" lon="0.78059">
        <ele>115.3</ele>
        <time>2022-01-18T14:11:53.065Z</time>
      </trkpt>
      <trkpt lat="44.34115" lon="0.78047">
        <ele>114.5</ele>
        <time>2022-01-18T14:11:41.065Z</time>
      </trkpt>
      <trkpt lat="44.34094" lon="0.7801">
        <ele>111</ele>
        <time>2022-01-18T14:11:06.065Z</time>
      </trkpt>
      <trkpt lat="44.34077" lon="0.77985">
        <ele>106.8</ele>
        <time>2022-01-18T14:10:42.065Z</time>
      </trkpt>
      <trkpt lat="44.3407" lon="0.77974">
        <ele>105.1</ele>
        <time>2022-01-18T14:10:31.065Z</time>
      </trkpt>
      <trkpt lat="44.34054" lon="0.77953">
        <ele>102.2</ele>
        <time>2022-01-18T14:10:07.065Z</time>
      </trkpt>
      <trkpt lat="44.34044" lon="0.77945">
        <ele>101.2</ele>
        <time>2022-01-18T14:09:55.065Z</time>
      </trkpt>
      <trkpt lat="44.34036" lon="0.77955">
        <ele>100.7</ele>
        <time>2022-01-18T14:09:44.065Z</time>
      </trkpt>
      <trkpt lat="44.34023" lon="0.77968">
        <ele>99.5</ele>
        <time>2022-01-18T14:09:32.046Z</time>
      </trkpt>
      <trkpt lat="44.34009" lon="0.77961">
        <ele>98.5</ele>
        <time>2022-01-18T14:09:08.046Z</time>
      </trkpt>
      <trkpt lat="44.33995" lon="0.77956">
        <ele>98.1</ele>
        <time>2022-01-18T14:08:45.042Z</time>
      </trkpt>
      <trkpt lat="44.33983" lon="0.77956">
        <ele>97.9</ele>
        <time>2022-01-18T14:08:33.038Z</time>
      </trkpt>
      <trkpt lat="44.33983" lon="0.77943">
        <ele>99.1</ele>
        <time>2022-01-18T14:08:22.038Z</time>
      </trkpt>
      <trkpt lat="44.33987" lon="0.77916">
        <ele>101.1</ele>
        <time>2022-01-18T14:07:58.034Z</time>
      </trkpt>
      <trkpt lat="44.33973" lon="0.77835">
        <ele>108.9</ele>
        <time>2022-01-18T14:06:59.034Z</time>
      </trkpt>
      <trkpt lat="44.33973" lon="0.77817">
        <ele>110.2</ele>
        <time>2022-01-18T14:06:48.034Z</time>
      </trkpt>
      <trkpt lat="44.33977" lon="0.77797">
        <ele>111.4</ele>
        <time>2022-01-18T14:06:36.034Z</time>
      </trkpt>
      <trkpt lat="44.33986" lon="0.77769">
        <ele>112.3</ele>
        <time>2022-01-18T14:06:12.026Z</time>
      </trkpt>
      <trkpt lat="44.33985" lon="0.77762">
        <ele>112.1</ele>
        <time>2022-01-18T14:06:01.026Z</time>
      </trkpt>
      <trkpt lat="44.33977" lon="0.77748">
        <ele>111.3</ele>
        <time>2022-01-18T14:05:49.026Z</time>
      </trkpt>
      <trkpt lat="44.33965" lon="0.77741">
        <ele>110.1</ele>
        <time>2022-01-18T14:05:37.026Z</time>
      </trkpt>
      <trkpt lat="44.33956" lon="0.77731">
        <ele>109.1</ele>
        <time>2022-01-18T14:05:26.026Z</time>
      </trkpt>
      <trkpt lat="44.33947" lon="0.77724">
        <ele>108.3</ele>
        <time>2022-01-18T14:05:14.026Z</time>
      </trkpt>
      <trkpt lat="44.33938" lon="0.77712">
        <ele>106.4</ele>
        <time>2022-01-18T14:05:02.026Z</time>
      </trkpt>
      <trkpt lat="44.33935" lon="0.77692">
        <ele>104.7</ele>
        <time>2022-01-18T14:04:50.026Z</time>
      </trkpt>
      <trkpt lat="44.33941" lon="0.77636">
        <ele>100.4</ele>
        <time>2022-01-18T14:04:15.026Z</time>
      </trkpt>
      <trkpt lat="44.33942" lon="0.77596">
        <ele>99.2</ele>
        <time>2022-01-18T14:03:52.026Z</time>
      </trkpt>
      <trkpt lat="44.33937" lon="0.77576">
        <ele>98.2</ele>
        <time>2022-01-18T14:03:40.026Z</time>
      </trkpt>
      <trkpt lat="44.33927" lon="0.77562">
        <ele>97.1</ele>
        <time>2022-01-18T14:03:28.026Z</time>
      </trkpt>
      <trkpt lat="44.33915" lon="0.77566">
        <ele>95.9</ele>
        <time>2022-01-18T14:03:17.022Z</time>
      </trkpt>
      <trkpt lat="44.33909" lon="0.77572">
        <ele>95.3</ele>
        <time>2022-01-18T14:03:05.022Z</time>
      </trkpt>
      <trkpt lat="44.33854" lon="0.7766">
        <ele>92.5</ele>
        <time>2022-01-18T14:01:54.022Z</time>
      </trkpt>
      <trkpt lat="44.33805" lon="0.77775">
        <ele>90.1</ele>
        <time>2022-01-18T14:00:44.022Z</time>
      </trkpt>
      <trkpt lat="44.33796" lon="0.77793">
        <ele>90.8</ele>
        <time>2022-01-18T14:00:32.022Z</time>
      </trkpt>
      <trkpt lat="44.33785" lon="0.77806">
        <ele>90.2</ele>
        <time>2022-01-18T14:00:21.022Z</time>
      </trkpt>
      <trkpt lat="44.33779" lon="0.77818">
        <ele>89.2</ele>
        <time>2022-01-18T14:00:09.003Z</time>
      </trkpt>
      <trkpt lat="44.33779" lon="0.77823">
        <ele>88.9</ele>
        <time>2022-01-18T13:59:57.124Z</time>
      </trkpt>
      <trkpt lat="44.33773" lon="0.77832">
        <ele>87.9</ele>
        <time>2022-01-18T13:59:45.120Z</time>
      </trkpt>
      <trkpt lat="44.33749" lon="0.77861">
        <ele>87</ele>
        <time>2022-01-18T13:59:22.120Z</time>
      </trkpt>
      <trkpt lat="44.33735" lon="0.77872">
        <ele>87</ele>
        <time>2022-01-18T13:59:10.120Z</time>
      </trkpt>
      <trkpt lat="44.33662" lon="0.77893">
        <ele>87</ele>
        <time>2022-01-18T13:58:12.120Z</time>
      </trkpt>
      <trkpt lat="44.33649" lon="0.77898">
        <ele>87.2</ele>
        <time>2022-01-18T13:58:00.120Z</time>
      </trkpt>
      <trkpt lat="44.33583" lon="0.77931">
        <ele>88</ele>
        <time>2022-01-18T13:57:13.120Z</time>
      </trkpt>
      <trkpt lat="44.3352" lon="0.77963">
        <ele>91.9</ele>
        <time>2022-01-18T13:56:26.116Z</time>
      </trkpt>
      <trkpt lat="44.33515" lon="0.77965">
        <ele>92.2</ele>
        <time>2022-01-18T13:56:14.116Z</time>
      </trkpt>
      <trkpt lat="44.33504" lon="0.77959">
        <ele>92.4</ele>
        <time>2022-01-18T13:56:02.112Z</time>
      </trkpt>
      <trkpt lat="44.335" lon="0.77904">
        <ele>92</ele>
        <time>2022-01-18T13:55:26.120Z</time>
      </trkpt>
      <trkpt lat="44.33498" lon="0.77882">
        <ele>92.3</ele>
        <time>2022-01-18T13:55:15.120Z</time>
      </trkpt>
      <trkpt lat="44.33494" lon="0.77836">
        <ele>92.6</ele>
        <time>2022-01-18T13:54:51.120Z</time>
      </trkpt>
      <trkpt lat="44.33489" lon="0.77792">
        <ele>93.6</ele>
        <time>2022-01-18T13:54:28.120Z</time>
      </trkpt>
      <trkpt lat="44.33482" lon="0.77697">
        <ele>93.3</ele>
        <time>2022-01-18T13:53:41.120Z</time>
      </trkpt>
      <trkpt lat="44.33475" lon="0.77649">
        <ele>92.7</ele>
        <time>2022-01-18T13:53:17.120Z</time>
      </trkpt>
      <trkpt lat="44.3347" lon="0.77629">
        <ele>93.3</ele>
        <time>2022-01-18T13:53:06.120Z</time>
      </trkpt>
      <trkpt lat="44.33455" lon="0.77586">
        <ele>93.4</ele>
        <time>2022-01-18T13:52:42.120Z</time>
      </trkpt>
      <trkpt lat="44.33435" lon="0.77548">
        <ele>95.1</ele>
        <time>2022-01-18T13:52:19.120Z</time>
      </trkpt>
      <trkpt lat="44.33411" lon="0.77517">
        <ele>95.8</ele>
        <time>2022-01-18T13:51:55.120Z</time>
      </trkpt>
      <trkpt lat="44.33396" lon="0.77494">
        <ele>95.8</ele>
        <time>2022-01-18T13:51:32.120Z</time>
      </trkpt>
      <trkpt lat="44.33378" lon="0.77465">
        <ele>96</ele>
        <time>2022-01-18T13:51:08.120Z</time>
      </trkpt>
      <trkpt lat="44.33364" lon="0.77429">
        <ele>95.6</ele>
        <time>2022-01-18T13:50:45.120Z</time>
      </trkpt>
      <trkpt lat="44.33348" lon="0.77396">
        <ele>96</ele>
        <time>2022-01-18T13:50:21.120Z</time>
      </trkpt>
      <trkpt lat="44.33331" lon="0.77374">
        <ele>97.6</ele>
        <time>2022-01-18T13:49:58.120Z</time>
      </trkpt>
      <trkpt lat="44.33317" lon="0.7736">
        <ele>96.5</ele>
        <time>2022-01-18T13:49:46.120Z</time>
      </trkpt>
      <trkpt lat="44.33301" lon="0.77348">
        <ele>95.5</ele>
        <time>2022-01-18T13:49:34.120Z</time>
      </trkpt>
      <trkpt lat="44.33271" lon="0.77334">
        <ele>96.1</ele>
        <time>2022-01-18T13:49:11.120Z</time>
      </trkpt>
      <trkpt lat="44.33257" lon="0.77329">
        <ele>97.4</ele>
        <time>2022-01-18T13:48:59.120Z</time>
      </trkpt>
      <trkpt lat="44.33242" lon="0.77319">
        <ele>98.2</ele>
        <time>2022-01-18T13:48:47.120Z</time>
      </trkpt>
      <trkpt lat="44.33231" lon="0.77304">
        <ele>97.6</ele>
        <time>2022-01-18T13:48:36.120Z</time>
      </trkpt>
      <trkpt lat="44.3321" lon="0.7727">
        <ele>96.2</ele>
        <time>2022-01-18T13:48:01.104Z</time>
      </trkpt>
      <trkpt lat="44.33189" lon="0.77231">
        <ele>94</ele>
        <time>2022-01-18T13:47:37.104Z</time>
      </trkpt>
      <trkpt lat="44.33169" lon="0.77196">
        <ele>92.8</ele>
        <time>2022-01-18T13:47:14.104Z</time>
      </trkpt>
      <trkpt lat="44.3314" lon="0.77135">
        <ele>91.8</ele>
        <time>2022-01-18T13:46:38.104Z</time>
      </trkpt>
      <trkpt lat="44.33119" lon="0.77095">
        <ele>91.9</ele>
        <time>2022-01-18T13:46:15.104Z</time>
      </trkpt>
      <trkpt lat="44.33075" lon="0.77032">
        <ele>91.4</ele>
        <time>2022-01-18T13:45:28.104Z</time>
      </trkpt>
      <trkpt lat="44.33064" lon="0.77012">
        <ele>91.3</ele>
        <time>2022-01-18T13:45:16.092Z</time>
      </trkpt>
      <trkpt lat="44.33008" lon="0.76962">
        <ele>91.5</ele>
        <time>2022-01-18T13:44:53.080Z</time>
      </trkpt>
      <trkpt lat="44.32911" lon="0.76924">
        <ele>92.7</ele>
        <time>2022-01-18T13:44:18.080Z</time>
      </trkpt>
      <trkpt lat="44.32833" lon="0.76896">
        <ele>93.8</ele>
        <time>2022-01-18T13:43:31.080Z</time>
      </trkpt>
      <trkpt lat="44.32683" lon="0.76707">
        <ele>96.8</ele>
      </trkpt>
      <trkpt lat="44.32614" lon="0.76577">
        <ele>96.7</ele>
        <time>2022-01-18T13:42:56.080Z</time>
      </trkpt>
      <trkpt lat="44.32581" lon="0.7644">
        <ele>96.9</ele>
        <time>2022-01-18T13:42:32.080Z</time>
      </trkpt>
      <trkpt lat="44.32664" lon="0.76271">
        <ele>98.3</ele>
        <time>2022-01-18T13:42:20.080Z</time>
      </trkpt>
      <trkpt lat="44.32669" lon="0.76195">
        <ele>98.8</ele>
      </trkpt>
      <trkpt lat="44.32598" lon="0.7616">
        <ele>98.7</ele>
      </trkpt>
      <trkpt lat="44.32501" lon="0.76166">
        <ele>104.9</ele>
      </trkpt>
      <trkpt lat="44.32418" lon="0.76168">
        <ele>113</ele>
      </trkpt>
      <trkpt lat="44.32319" lon="0.76159">
        <ele>119.5</ele>
      </trkpt>
      <trkpt lat="44.32228" lon="0.76142">
        <ele>126.5</ele>
      </trkpt>
      <trkpt lat="44.32195" lon="0.76181">
        <ele>122.4</ele>
      </trkpt>
      <trkpt lat="44.32104" lon="0.76186">
        <ele>124.5</ele>
      </trkpt>
      <trkpt lat="44.32086" lon="0.76234">
        <ele>115.5</ele>
      </trkpt>
      <trkpt lat="44.32064" lon="0.76265">
        <ele>111.6</ele>
      </trkpt>
      <trkpt lat="44.32078" lon="0.76484">
        <ele>104.5</ele>
      </trkpt>
      <trkpt lat="44.32058" lon="0.76551">
        <ele>106.9</ele>
      </trkpt>
      <trkpt lat="44.32016" lon="0.76619">
        <ele>107.3</ele>
      </trkpt>
      <trkpt lat="44.31952" lon="0.76698">
        <ele>106.7</ele>
      </trkpt>
      <trkpt lat="44.31895" lon="0.76684">
        <ele>110.6</ele>
      </trkpt>
      <trkpt lat="44.31883" lon="0.76814">
        <ele>110.3</ele>
      </trkpt>
      <trkpt lat="44.31911" lon="0.76834">
        <ele>109.2</ele>
      </trkpt>
      <trkpt lat="44.31943" lon="0.76842">
        <ele>109</ele>
      </trkpt>
      <trkpt lat="44.3205" lon="0.76934">
        <ele>128.6</ele>
      </trkpt>
      <trkpt lat="44.32021" lon="0.77115">
        <ele>124.7</ele>
      </trkpt>
      <trkpt lat="44.32043" lon="0.77181">
        <ele>131</ele>
      </trkpt>
      <trkpt lat="44.32089" lon="0.77261">
        <ele>150.8</ele>
      </trkpt>
      <trkpt lat="44.32055" lon="0.77413">
        <ele>153.1</ele>
      </trkpt>
      <trkpt lat="44.32067" lon="0.77606">
        <ele>166.6</ele>
      </trkpt>
      <trkpt lat="44.32124" lon="0.77767">
        <ele>166</ele>
        <time>2022-01-18T13:28:27.040Z</time>
      </trkpt>
      <trkpt lat="44.32175" lon="0.77936">
        <ele>176.2</ele>
        <time>2022-01-18T13:28:16.040Z</time>
      </trkpt>
      <trkpt lat="44.32185" lon="0.78029">
        <ele>186.2</ele>
        <time>2022-01-18T13:28:04.040Z</time>
      </trkpt>
      <trkpt lat="44.32154" lon="0.78064">
        <ele>183.1</ele>
        <time>2022-01-18T13:27:41.040Z</time>
      </trkpt>
      <trkpt lat="44.32141" lon="0.78105">
        <ele>189.2</ele>
        <time>2022-01-18T13:27:29.040Z</time>
      </trkpt>
      <trkpt lat="44.32123" lon="0.78141">
        <ele>187.9</ele>
        <time>2022-01-18T13:27:17.040Z</time>
      </trkpt>
      <trkpt lat="44.32124" lon="0.78178">
        <ele>189.9</ele>
        <time>2022-01-18T13:27:05.040Z</time>
      </trkpt>
      <trkpt lat="44.32128" lon="0.78213">
        <ele>192.2</ele>
        <time>2022-01-18T13:26:42.040Z</time>
      </trkpt>
      <trkpt lat="44.32139" lon="0.78235">
        <ele>197.1</ele>
      </trkpt>
      <trkpt lat="44.32159" lon="0.78256">
        <ele>202</ele>
        <time>2022-01-18T13:25:55.040Z</time>
      </trkpt>
      <trkpt lat="44.32158" lon="0.78263">
        <ele>201.5</ele>
      </trkpt>
      <trkpt lat="44.32161" lon="0.78269">
        <ele>202.2</ele>
        <time>2022-01-18T13:25:42.024Z</time>
      </trkpt>
      <trkpt lat="44.32156" lon="0.78295">
        <ele>198.8</ele>
        <time>2022-01-18T13:25:07.024Z</time>
      </trkpt>
      <trkpt lat="44.32168" lon="0.78327">
        <ele>199</ele>
        <time>2022-01-18T13:24:55.024Z</time>
      </trkpt>
      <trkpt lat="44.3218" lon="0.78352">
        <ele>199.5</ele>
      </trkpt>
      <trkpt lat="44.32185" lon="0.78362">
        <ele>200</ele>
        <time>2022-01-18T13:24:44.024Z</time>
      </trkpt>
      <trkpt lat="44.3219" lon="0.78384">
        <ele>200.3</ele>
      </trkpt>
      <trkpt lat="44.32184" lon="0.78404">
        <ele>198.9</ele>
      </trkpt>
      <trkpt lat="44.32182" lon="0.78436">
        <ele>199.8</ele>
      </trkpt>
      <trkpt lat="44.3219" lon="0.78455">
        <ele>201.8</ele>
        <time>2022-01-18T13:24:08.024Z</time>
      </trkpt>
      <trkpt lat="44.32202" lon="0.78477">
        <ele>203.7</ele>
        <time>2022-01-18T13:23:57.024Z</time>
      </trkpt>
      <trkpt lat="44.32219" lon="0.7849">
        <ele>205.4</ele>
        <time>2022-01-18T13:23:45.020Z</time>
      </trkpt>
      <trkpt lat="44.32246" lon="0.78515">
        <ele>206.9</ele>
        <time>2022-01-18T13:23:21.020Z</time>
      </trkpt>
      <trkpt lat="44.32257" lon="0.78504">
        <ele>207.3</ele>
        <time>2022-01-18T13:23:10.020Z</time>
      </trkpt>
      <trkpt lat="44.3228" lon="0.78441">
        <ele>208.1</ele>
      </trkpt>
      <trkpt lat="44.32284" lon="0.78427">
        <ele>208.4</ele>
        <time>2022-01-18T13:22:58.020Z</time>
      </trkpt>
      <trkpt lat="44.32292" lon="0.7842">
        <ele>209</ele>
        <time>2022-01-18T13:22:46.020Z</time>
      </trkpt>
      <trkpt lat="44.32304" lon="0.78421">
        <ele>209.9</ele>
        <time>2022-01-18T13:22:35.020Z</time>
      </trkpt>
      <trkpt lat="44.3231" lon="0.78417">
        <ele>210.2</ele>
        <time>2022-01-18T13:22:23.004Z</time>
      </trkpt>
      <trkpt lat="44.3232" lon="0.78423">
        <ele>210.7</ele>
        <time>2022-01-18T13:22:11.004Z</time>
      </trkpt>
      <trkpt lat="44.32323" lon="0.78424">
        <ele>210.8</ele>
      </trkpt>
    </trkseg>
  </trk>
</gpx>